sensor_id;sensor_type;location;lat;lon;timestamp;pressure;altitude;pressure_sealevel;temperature;humidity
1726;BME280;41776;48.260;8.928;2022-09-09T00:00:47;71366.56;;;-145.69;100.00
1726;BME280;41776;48.260;8.928;2022-09-09T00:03:17;71346.69;;;-145.69;100.00
1726;BME280;41776;48.260;8.928;2022-09-09T00:05:52;71350.66;;;-145.69;100.00
1726;BME280;41776;48.260;8.928;2022-09-09T00:08:30;71354.63;;;-145.69;100.00
1726;BME280;41776;48.260;8.928;2022-09-09T00:11:03;71358.63;;;-145.69;100.00
1726;BME280;41776;48.260;8.928;2022-09-09T00:13:34;71354.63;;;-145.69;100.00
1726;BME280;41776;48.260;8.928;2022-09-09T00:16:08;71356.63;;;-145.69;100.00
1726;BME280;41776;48.260;8.928;2022-09-09T00:18:49;71342.69;;;-145.69;100.00
1726;BME280;41776;48.260;8.928;2022-09-09T00:21:20;71316.84;;;-145.69;100.00
1726;BME280;41776;48.260;8.928;2022-09-09T00:23:53;71322.81;;;-145.69;100.00
1726;BME280;41776;48.260;8.928;2022-09-09T00:26:24;71314.84;;;-145.69;100.00
1726;BME280;41776;48.260;8.928;2022-09-09T00:29:02;71306.88;;;-145.69;100.00
1726;BME280;41776;48.260;8.928;2022-09-09T00:31:32;71318.81;;;-145.69;100.00
1726;BME280;41776;48.260;8.928;2022-09-09T00:34:03;71326.78;;;-145.69;100.00
1726;BME280;41776;48.260;8.928;2022-09-09T00:36:35;71330.75;;;-145.69;100.00
1726;BME280;41776;48.260;8.928;2022-09-09T00:39:04;71330.75;;;-145.69;100.00
1726;BME280;41776;48.260;8.928;2022-09-09T00:41:43;71326.78;;;-145.69;100.00
1726;BME280;41776;48.260;8.928;2022-09-09T00:44:19;71306.88;;;-145.69;100.00
1726;BME280;41776;48.260;8.928;2022-09-09T00:47:07;71306.88;;;-145.69;100.00
1726;BME280;41776;48.260;8.928;2022-09-09T00:49:43;71312.84;;;-145.69;100.00
1726;BME280;41776;48.260;8.928;2022-09-09T00:52:23;71320.81;;;-145.69;100.00
1726;BME280;41776;48.260;8.928;2022-09-09T00:55:00;71330.75;;;-145.69;100.00
1726;BME280;41776;48.260;8.928;2022-09-09T00:57:30;71336.72;;;-145.69;100.00
1726;BME280;41776;48.260;8.928;2022-09-09T01:00:02;71342.69;;;-145.69;100.00
1726;BME280;41776;48.260;8.928;2022-09-09T01:02:39;71342.69;;;-145.69;100.00
1726;BME280;41776;48.260;8.928;2022-09-09T01:05:12;71346.69;;;-145.69;100.00
1726;BME280;41776;48.260;8.928;2022-09-09T01:07:44;71348.66;;;-145.69;100.00
1726;BME280;41776;48.260;8.928;2022-09-09T01:10:23;71372.53;;;-145.69;100.00
1726;BME280;41776;48.260;8.928;2022-09-09T01:12:53;71390.47;;;-145.69;100.00
1726;BME280;41776;48.260;8.928;2022-09-09T01:15:24;71386.47;;;-145.69;100.00
1726;BME280;41776;48.260;8.928;2022-09-09T01:17:58;71370.56;;;-145.69;100.00
1726;BME280;41776;48.260;8.928;2022-09-09T01:20:31;71390.47;;;-145.69;100.00
1726;BME280;41776;48.260;8.928;2022-09-09T01:23:15;71382.50;;;-145.69;100.00
1726;BME280;41776;48.260;8.928;2022-09-09T01:28:49;71418.31;;;-145.69;100.00
1726;BME280;41776;48.260;8.928;2022-09-09T01:31:20;71430.25;;;-145.69;100.00
1726;BME280;41776;48.260;8.928;2022-09-09T01:33:47;71442.19;;;-145.69;100.00
1726;BME280;41776;48.260;8.928;2022-09-09T01:36:19;71380.50;;;-145.69;100.00
1726;BME280;41776;48.260;8.928;2022-09-09T01:38:48;71386.47;;;-145.69;100.00
1726;BME280;41776;48.260;8.928;2022-09-09T01:41:14;71382.50;;;-145.69;100.00
1726;BME280;41776;48.260;8.928;2022-09-09T01:43:41;71364.59;;;-145.69;100.00
1726;BME280;41776;48.260;8.928;2022-09-09T01:46:09;71318.81;;;-145.69;100.00
1726;BME280;41776;48.260;8.928;2022-09-09T01:48:39;71316.84;;;-145.69;100.00
1726;BME280;41776;48.260;8.928;2022-09-09T01:51:07;71302.91;;;-145.69;100.00
1726;BME280;41776;48.260;8.928;2022-09-09T01:53:35;71271.06;;;-145.69;100.00
1726;BME280;41776;48.260;8.928;2022-09-09T01:56:08;71265.09;;;-145.69;100.00
1726;BME280;41776;48.260;8.928;2022-09-09T01:58:48;71263.09;;;-145.69;100.00
1726;BME280;41776;48.260;8.928;2022-09-09T02:01:28;71223.31;;;-145.69;100.00
1726;BME280;41776;48.260;8.928;2022-09-09T02:04:04;71201.41;;;-145.69;100.00
1726;BME280;41776;48.260;8.928;2022-09-09T02:06:36;71187.50;;;-145.69;100.00
1726;BME280;41776;48.260;8.928;2022-09-09T02:09:05;71175.56;;;-145.69;100.00
1726;BME280;41776;48.260;8.928;2022-09-09T02:11:34;71179.53;;;-145.69;100.00
1726;BME280;41776;48.260;8.928;2022-09-09T02:14:05;71183.50;;;-145.69;100.00
1726;BME280;41776;48.260;8.928;2022-09-09T02:16:39;71181.53;;;-145.69;100.00
1726;BME280;41776;48.260;8.928;2022-09-09T02:19:10;71179.53;;;-145.69;100.00
1726;BME280;41776;48.260;8.928;2022-09-09T02:21:39;71143.72;;;-145.69;100.00
1726;BME280;41776;48.260;8.928;2022-09-09T02:24:09;71141.72;;;-145.69;100.00
1726;BME280;41776;48.260;8.928;2022-09-09T02:26:39;71131.78;;;-145.69;100.00
1726;BME280;41776;48.260;8.928;2022-09-09T02:29:09;71141.72;;;-145.69;100.00
1726;BME280;41776;48.260;8.928;2022-09-09T02:31:41;71151.69;;;-145.69;100.00
1726;BME280;41776;48.260;8.928;2022-09-09T02:34:11;71147.69;;;-145.69;100.00
1726;BME280;41776;48.260;8.928;2022-09-09T02:36:41;71139.75;;;-145.69;100.00
1726;BME280;41776;48.260;8.928;2022-09-09T02:39:10;71125.81;;;-145.69;100.00
1726;BME280;41776;48.260;8.928;2022-09-09T02:41:40;71121.84;;;-145.69;100.00
1726;BME280;41776;48.260;8.928;2022-09-09T02:44:09;71139.75;;;-145.69;100.00
1726;BME280;41776;48.260;8.928;2022-09-09T02:47:00;71137.75;;;-145.69;100.00
1726;BME280;41776;48.260;8.928;2022-09-09T02:49:38;71139.75;;;-145.69;100.00
1726;BME280;41776;48.260;8.928;2022-09-09T02:52:11;71147.69;;;-145.69;100.00
1726;BME280;41776;48.260;8.928;2022-09-09T02:54:41;71177.53;;;-145.69;100.00
1726;BME280;41776;48.260;8.928;2022-09-09T02:57:11;71193.47;;;-145.69;100.00
1726;BME280;41776;48.260;8.928;2022-09-09T02:59:38;71213.38;;;-145.69;100.00
1726;BME280;41776;48.260;8.928;2022-09-09T03:02:08;71223.31;;;-145.69;100.00
1726;BME280;41776;48.260;8.928;2022-09-09T03:04:35;71243.22;;;-145.69;100.00
1726;BME280;41776;48.260;8.928;2022-09-09T03:07:01;71211.38;;;-145.69;100.00
1726;BME280;41776;48.260;8.928;2022-09-09T03:09:28;71213.38;;;-145.69;100.00
1726;BME280;41776;48.260;8.928;2022-09-09T03:11:55;71219.34;;;-145.69;100.00
1726;BME280;41776;48.260;8.928;2022-09-09T03:14:22;71223.31;;;-145.69;100.00
1726;BME280;41776;48.260;8.928;2022-09-09T03:16:50;71231.28;;;-145.69;100.00
1726;BME280;41776;48.260;8.928;2022-09-09T03:19:18;71237.25;;;-145.69;100.00
1726;BME280;41776;48.260;8.928;2022-09-09T03:21:45;71255.16;;;-145.69;100.00
1726;BME280;41776;48.260;8.928;2022-09-09T03:24:12;71271.06;;;-145.69;100.00
1726;BME280;41776;48.260;8.928;2022-09-09T03:26:39;71279.03;;;-145.69;100.00
1726;BME280;41776;48.260;8.928;2022-09-09T03:29:06;71283.00;;;-145.69;100.00
1726;BME280;41776;48.260;8.928;2022-09-09T03:31:33;71279.03;;;-145.69;100.00
1726;BME280;41776;48.260;8.928;2022-09-09T03:34:01;71302.91;;;-145.69;100.00
1726;BME280;41776;48.260;8.928;2022-09-09T03:36:29;71306.88;;;-145.69;100.00
1726;BME280;41776;48.260;8.928;2022-09-09T03:38:56;71304.91;;;-145.69;100.00
1726;BME280;41776;48.260;8.928;2022-09-09T03:41:23;71314.84;;;-145.69;100.00
1726;BME280;41776;48.260;8.928;2022-09-09T03:43:49;71330.75;;;-145.69;100.00
1726;BME280;41776;48.260;8.928;2022-09-09T03:46:16;71340.72;;;-145.69;100.00
1726;BME280;41776;48.260;8.928;2022-09-09T03:48:43;71350.66;;;-145.69;100.00
1726;BME280;41776;48.260;8.928;2022-09-09T03:51:09;71366.56;;;-145.69;100.00
1726;BME280;41776;48.260;8.928;2022-09-09T03:53:37;71378.50;;;-145.69;100.00
1726;BME280;41776;48.260;8.928;2022-09-09T03:56:04;71382.50;;;-145.69;100.00
1726;BME280;41776;48.260;8.928;2022-09-09T03:58:34;71374.53;;;-145.69;100.00
1726;BME280;41776;48.260;8.928;2022-09-09T04:01:03;71376.53;;;-145.69;100.00
1726;BME280;41776;48.260;8.928;2022-09-09T04:03:31;71384.47;;;-145.69;100.00
1726;BME280;41776;48.260;8.928;2022-09-09T04:05:59;71386.47;;;-145.69;100.00
1726;BME280;41776;48.260;8.928;2022-09-09T04:08:27;71382.50;;;-145.69;100.00
1726;BME280;41776;48.260;8.928;2022-09-09T04:10:55;71392.44;;;-145.69;100.00
1726;BME280;41776;48.260;8.928;2022-09-09T04:13:23;71398.41;;;-145.69;100.00
1726;BME280;41776;48.260;8.928;2022-09-09T04:15:52;71402.41;;;-145.69;100.00
1726;BME280;41776;48.260;8.928;2022-09-09T04:18:19;71388.47;;;-145.69;100.00
1726;BME280;41776;48.260;8.928;2022-09-09T04:20:46;71378.50;;;-145.69;100.00
1726;BME280;41776;48.260;8.928;2022-09-09T04:23:14;71370.56;;;-145.69;100.00
1726;BME280;41776;48.260;8.928;2022-09-09T04:25:44;71364.59;;;-145.69;100.00
1726;BME280;41776;48.260;8.928;2022-09-09T04:28:13;71356.63;;;-145.69;100.00
1726;BME280;41776;48.260;8.928;2022-09-09T04:30:40;71354.63;;;-145.69;100.00
1726;BME280;41776;48.260;8.928;2022-09-09T04:33:07;71358.63;;;-145.69;100.00
1726;BME280;41776;48.260;8.928;2022-09-09T04:35:33;71342.69;;;-145.69;100.00
1726;BME280;41776;48.260;8.928;2022-09-09T04:38:00;71340.72;;;-145.69;100.00
1726;BME280;41776;48.260;8.928;2022-09-09T04:40:28;71338.72;;;-145.69;100.00
1726;BME280;41776;48.260;8.928;2022-09-09T04:42:54;71338.72;;;-145.69;100.00
1726;BME280;41776;48.260;8.928;2022-09-09T04:45:22;71332.75;;;-145.69;100.00
1726;BME280;41776;48.260;8.928;2022-09-09T04:47:48;71328.78;;;-145.69;100.00
1726;BME280;41776;48.260;8.928;2022-09-09T04:50:15;71320.81;;;-145.69;100.00
1726;BME280;41776;48.260;8.928;2022-09-09T04:52:42;71324.78;;;-145.69;100.00
1726;BME280;41776;48.260;8.928;2022-09-09T04:55:08;71328.78;;;-145.69;100.00
1726;BME280;41776;48.260;8.928;2022-09-09T04:57:35;71340.72;;;-145.69;100.00
1726;BME280;41776;48.260;8.928;2022-09-09T05:00:03;71338.72;;;-145.69;100.00
1726;BME280;41776;48.260;8.928;2022-09-09T05:02:31;71326.78;;;-145.69;100.00
1726;BME280;41776;48.260;8.928;2022-09-09T05:04:58;71314.84;;;-145.69;100.00
1726;BME280;41776;48.260;8.928;2022-09-09T05:07:26;71318.81;;;-145.69;100.00
1726;BME280;41776;48.260;8.928;2022-09-09T05:09:54;71322.81;;;-145.69;100.00
1726;BME280;41776;48.260;8.928;2022-09-09T05:12:20;71326.78;;;-145.69;100.00
1726;BME280;41776;48.260;8.928;2022-09-09T05:14:47;71332.75;;;-145.69;100.00
1726;BME280;41776;48.260;8.928;2022-09-09T05:17:14;71326.78;;;-145.69;100.00
1726;BME280;41776;48.260;8.928;2022-09-09T05:19:42;71320.81;;;-145.69;100.00
1726;BME280;41776;48.260;8.928;2022-09-09T05:22:09;71316.84;;;-145.69;100.00
1726;BME280;41776;48.260;8.928;2022-09-09T05:24:37;71294.94;;;-145.69;100.00
1726;BME280;41776;48.260;8.928;2022-09-09T05:27:04;71283.00;;;-145.69;100.00
1726;BME280;41776;48.260;8.928;2022-09-09T05:29:31;71288.97;;;-145.69;100.00
1726;BME280;41776;48.260;8.928;2022-09-09T05:31:58;71292.94;;;-145.69;100.00
1726;BME280;41776;48.260;8.928;2022-09-09T05:34:25;71286.97;;;-145.69;100.00
1726;BME280;41776;48.260;8.928;2022-09-09T05:36:52;71275.03;;;-145.69;100.00
1726;BME280;41776;48.260;8.928;2022-09-09T05:39:19;71265.09;;;-145.69;100.00
1726;BME280;41776;48.260;8.928;2022-09-09T05:41:45;71263.09;;;-145.69;100.00
1726;BME280;41776;48.260;8.928;2022-09-09T05:44:12;71259.13;;;-145.69;100.00
1726;BME280;41776;48.260;8.928;2022-09-09T05:46:38;71259.13;;;-145.69;100.00
1726;BME280;41776;48.260;8.928;2022-09-09T05:49:05;71245.19;;;-145.69;100.00
1726;BME280;41776;48.260;8.928;2022-09-09T05:51:31;71237.25;;;-145.69;100.00
1726;BME280;41776;48.260;8.928;2022-09-09T05:53:59;71221.31;;;-145.69;100.00
1726;BME280;41776;48.260;8.928;2022-09-09T05:56:26;71207.38;;;-145.69;100.00
1726;BME280;41776;48.260;8.928;2022-09-09T05:58:54;71193.47;;;-145.69;100.00
1726;BME280;41776;48.260;8.928;2022-09-09T06:01:23;71181.53;;;-145.69;100.00
1726;BME280;41776;48.260;8.928;2022-09-09T06:03:50;71171.56;;;-145.69;100.00
1726;BME280;41776;48.260;8.928;2022-09-09T06:06:18;71167.59;;;-145.69;100.00
1726;BME280;41776;48.260;8.928;2022-09-09T06:08:46;71151.69;;;-145.69;100.00
1726;BME280;41776;48.260;8.928;2022-09-09T06:11:16;71129.78;;;-145.69;100.00
1726;BME280;41776;48.260;8.928;2022-09-09T06:13:43;71139.75;;;-145.69;100.00
1726;BME280;41776;48.260;8.928;2022-09-09T06:16:12;71135.75;;;-145.69;100.00
1726;BME280;41776;48.260;8.928;2022-09-09T06:18:40;71115.88;;;-145.69;100.00
1726;BME280;41776;48.260;8.928;2022-09-09T06:21:09;71111.88;;;-145.69;100.00
1726;BME280;41776;48.260;8.928;2022-09-09T06:23:39;71095.97;;;-145.69;100.00
1726;BME280;41776;48.260;8.928;2022-09-09T06:26:09;71084.03;;;-145.69;100.00
1726;BME280;41776;48.260;8.928;2022-09-09T06:28:37;71068.13;;;-145.69;100.00
1726;BME280;41776;48.260;8.928;2022-09-09T06:31:05;71072.09;;;-145.69;100.00
1726;BME280;41776;48.260;8.928;2022-09-09T06:33:33;71072.09;;;-145.69;100.00
1726;BME280;41776;48.260;8.928;2022-09-09T06:36:00;71066.13;;;-145.69;100.00
1726;BME280;41776;48.260;8.928;2022-09-09T06:38:27;71064.13;;;-145.69;100.00
1726;BME280;41776;48.260;8.928;2022-09-09T06:40:55;71040.25;;;-145.69;100.00
1726;BME280;41776;48.260;8.928;2022-09-09T06:43:24;71042.25;;;-145.69;100.00
1726;BME280;41776;48.260;8.928;2022-09-09T06:45:56;71030.31;;;-145.69;100.00
1726;BME280;41776;48.260;8.928;2022-09-09T06:48:23;71006.44;;;-145.69;100.00
1726;BME280;41776;48.260;8.928;2022-09-09T06:50:51;70980.56;;;-145.69;100.00
1726;BME280;41776;48.260;8.928;2022-09-09T06:53:19;70992.50;;;-145.69;100.00
1726;BME280;41776;48.260;8.928;2022-09-09T06:55:46;70944.75;;;-145.69;100.00
1726;BME280;41776;48.260;8.928;2022-09-09T06:58:13;70940.78;;;-145.69;100.00
1726;BME280;41776;48.260;8.928;2022-09-09T07:00:39;70944.75;;;-145.69;100.00
1726;BME280;41776;48.260;8.928;2022-09-09T07:03:07;70946.75;;;-145.69;100.00
1726;BME280;41776;48.260;8.928;2022-09-09T07:05:36;70942.75;;;-145.69;100.00
1726;BME280;41776;48.260;8.928;2022-09-09T07:08:03;70922.88;;;-145.69;100.00
1726;BME280;41776;48.260;8.928;2022-09-09T07:10:29;70912.91;;;-145.69;100.00
1726;BME280;41776;48.260;8.928;2022-09-09T07:12:56;70891.03;;;-145.69;100.00
1726;BME280;41776;48.260;8.928;2022-09-09T07:15:22;70904.97;;;-145.69;100.00
1726;BME280;41776;48.260;8.928;2022-09-09T07:17:50;70920.88;;;-145.69;100.00
1726;BME280;41776;48.260;8.928;2022-09-09T07:20:18;70930.81;;;-145.69;100.00
1726;BME280;41776;48.260;8.928;2022-09-09T07:22:45;70936.78;;;-145.69;100.00
1726;BME280;41776;48.260;8.928;2022-09-09T07:25:11;70958.69;;;-145.69;100.00
1726;BME280;41776;48.260;8.928;2022-09-09T07:27:39;70968.63;;;-145.69;100.00
1726;BME280;41776;48.260;8.928;2022-09-09T07:30:07;70954.69;;;-145.69;100.00
1726;BME280;41776;48.260;8.928;2022-09-09T07:32:33;70944.75;;;-145.69;100.00
1726;BME280;41776;48.260;8.928;2022-09-09T07:35:00;70956.69;;;-145.69;100.00
1726;BME280;41776;48.260;8.928;2022-09-09T07:37:28;70976.59;;;-145.69;100.00
1726;BME280;41776;48.260;8.928;2022-09-09T07:39:57;70992.50;;;-145.69;100.00
1726;BME280;41776;48.260;8.928;2022-09-09T07:42:24;70996.47;;;-145.69;100.00
1726;BME280;41776;48.260;8.928;2022-09-09T07:44:53;70958.69;;;-145.69;100.00
1726;BME280;41776;48.260;8.928;2022-09-09T07:47:20;70908.94;;;-145.69;100.00
1726;BME280;41776;48.260;8.928;2022-09-09T07:49:46;70908.94;;;-145.69;100.00
1726;BME280;41776;48.260;8.928;2022-09-09T07:52:14;70893.03;;;-145.69;100.00
1726;BME280;41776;48.260;8.928;2022-09-09T07:54:43;70889.03;;;-145.69;100.00
1726;BME280;41776;48.260;8.928;2022-09-09T07:57:13;70928.84;;;-145.69;100.00
1726;BME280;41776;48.260;8.928;2022-09-09T07:59:40;70914.91;;;-145.69;100.00
1726;BME280;41776;48.260;8.928;2022-09-09T08:02:09;70930.81;;;-145.69;100.00
1726;BME280;41776;48.260;8.928;2022-09-09T08:04:36;70934.81;;;-145.69;100.00
1726;BME280;41776;48.260;8.928;2022-09-09T08:07:02;70918.88;;;-145.69;100.00
1726;BME280;41776;48.260;8.928;2022-09-09T08:09:29;70877.09;;;-145.69;100.00
1726;BME280;41776;48.260;8.928;2022-09-09T08:11:58;70825.38;;;-145.69;100.00
1726;BME280;41776;48.260;8.928;2022-09-09T08:14:26;70789.56;;;-145.69;100.00
1726;BME280;41776;48.260;8.928;2022-09-09T08:16:53;70765.69;;;-145.69;100.00
1726;BME280;41776;48.260;8.928;2022-09-09T08:19:20;70773.66;;;-145.69;100.00
1726;BME280;41776;48.260;8.928;2022-09-09T08:21:47;70775.63;;;-145.69;100.00
1726;BME280;41776;48.260;8.928;2022-09-09T08:24:15;70765.69;;;-145.69;100.00
1726;BME280;41776;48.260;8.928;2022-09-09T08:26:46;70765.69;;;-145.69;100.00
1726;BME280;41776;48.260;8.928;2022-09-09T08:29:15;70737.84;;;-145.69;100.00
1726;BME280;41776;48.260;8.928;2022-09-09T08:31:44;70765.69;;;-145.69;100.00
1726;BME280;41776;48.260;8.928;2022-09-09T08:34:12;70787.56;;;-145.69;100.00
1726;BME280;41776;48.260;8.928;2022-09-09T08:36:41;70809.47;;;-145.69;100.00
1726;BME280;41776;48.260;8.928;2022-09-09T08:39:12;70811.44;;;-145.69;100.00
1726;BME280;41776;48.260;8.928;2022-09-09T08:41:50;70825.38;;;-145.69;100.00
1726;BME280;41776;48.260;8.928;2022-09-09T08:44:31;70823.38;;;-145.69;100.00
1726;BME280;41776;48.260;8.928;2022-09-09T08:47:06;70805.47;;;-145.69;100.00
1726;BME280;41776;48.260;8.928;2022-09-09T08:50:05;70811.44;;;-145.69;100.00
1726;BME280;41776;48.260;8.928;2022-09-09T08:52:38;70829.34;;;-145.69;100.00
1726;BME280;41776;48.260;8.928;2022-09-09T08:55:17;70809.47;;;-145.69;100.00
1726;BME280;41776;48.260;8.928;2022-09-09T08:57:48;70743.81;;;-145.69;100.00
1726;BME280;41776;48.260;8.928;2022-09-09T09:00:18;70747.78;;;-145.69;100.00
1726;BME280;41776;48.260;8.928;2022-09-09T09:02:49;70735.84;;;-145.69;100.00
1726;BME280;41776;48.260;8.928;2022-09-09T09:05:25;70741.81;;;-145.69;95.75
1726;BME280;41776;48.260;8.928;2022-09-09T09:08:00;70775.63;;;-145.69;95.97
1726;BME280;41776;48.260;8.928;2022-09-09T09:10:42;70777.63;;;-145.69;100.00
1726;BME280;41776;48.260;8.928;2022-09-09T09:13:14;70817.41;;;-145.69;97.33
1726;BME280;41776;48.260;8.928;2022-09-09T09:15:45;70839.31;;;-145.69;100.00
1726;BME280;41776;48.260;8.928;2022-09-09T09:18:15;70851.25;;;-145.69;100.00
1726;BME280;41776;48.260;8.928;2022-09-09T09:20:50;70839.31;;;-145.69;100.00
1726;BME280;41776;48.260;8.928;2022-09-09T09:23:22;70761.72;;;-145.69;100.00
1726;BME280;41776;48.260;8.928;2022-09-09T09:25:50;70751.75;;;-145.69;96.03
1726;BME280;41776;48.260;8.928;2022-09-09T09:28:22;70777.63;;;-145.69;100.00
1726;BME280;41776;48.260;8.928;2022-09-09T09:30:53;70767.69;;;-145.69;93.32
1726;BME280;41776;48.260;8.928;2022-09-09T09:33:26;70723.91;;;-145.69;95.71
1726;BME280;41776;48.260;8.928;2022-09-09T09:35:54;70634.38;;;-145.69;91.59
1726;BME280;41776;48.260;8.928;2022-09-09T09:38:22;70632.38;;;-145.69;90.35
1726;BME280;41776;48.260;8.928;2022-09-09T09:40:50;70610.50;;;-145.69;95.20
1726;BME280;41776;48.260;8.928;2022-09-09T09:43:20;70608.53;;;-145.69;87.11
1726;BME280;41776;48.260;8.928;2022-09-09T09:45:48;70584.66;;;-145.69;84.24
1726;BME280;41776;48.260;8.928;2022-09-09T09:48:15;70578.69;;;-145.69;84.36
1726;BME280;41776;48.260;8.928;2022-09-09T09:50:48;70592.59;;;-145.69;86.01
1726;BME280;41776;48.260;8.928;2022-09-09T09:53:24;70586.63;;;-145.69;85.44
1726;BME280;41776;48.260;8.928;2022-09-09T09:55:58;70618.47;;;-145.69;85.48
1726;BME280;41776;48.260;8.928;2022-09-09T09:58:26;70678.16;;;-145.69;86.73
1726;BME280;41776;48.260;8.928;2022-09-09T10:00:57;70713.97;;;-145.69;85.09
1726;BME280;41776;48.260;8.928;2022-09-09T10:03:28;70711.97;;;-145.69;87.68
1726;BME280;41776;48.260;8.928;2022-09-09T10:05:56;70690.09;;;-145.69;87.01
1726;BME280;41776;48.260;8.928;2022-09-09T10:08:23;70692.06;;;-145.69;86.31
1726;BME280;41776;48.260;8.928;2022-09-09T10:11:02;70700.03;;;-145.69;83.80
1726;BME280;41776;48.260;8.928;2022-09-09T10:13:37;70737.84;;;-145.69;81.84
1726;BME280;41776;48.260;8.928;2022-09-09T10:16:21;70771.66;;;-145.69;85.91
1726;BME280;41776;48.260;8.928;2022-09-09T10:18:59;70739.81;;;-145.69;92.52
1726;BME280;41776;48.260;8.928;2022-09-09T10:21:41;70709.97;;;-145.69;86.27
1726;BME280;41776;48.260;8.928;2022-09-09T10:24:26;70696.06;;;-145.69;81.57
1726;BME280;41776;48.260;8.928;2022-09-09T10:27:03;70708.00;;;-145.69;80.27
1726;BME280;41776;48.260;8.928;2022-09-09T10:29:40;70682.13;;;-145.69;81.03
1726;BME280;41776;48.260;8.928;2022-09-09T10:32:40;70680.13;;;-145.69;83.62
1726;BME280;41776;48.260;8.928;2022-09-09T10:35:19;70642.34;;;-145.69;82.35
1726;BME280;41776;48.260;8.928;2022-09-09T10:38:11;70620.44;;;-145.69;78.42
1726;BME280;41776;48.260;8.928;2022-09-09T10:40:43;70608.53;;;-145.69;79.93
1726;BME280;41776;48.260;8.928;2022-09-09T10:43:26;70618.47;;;-145.69;76.88
1726;BME280;41776;48.260;8.928;2022-09-09T10:46:03;70590.63;;;-145.69;83.23
1726;BME280;41776;48.260;8.928;2022-09-09T10:48:46;70602.56;;;-145.69;76.58
1726;BME280;41776;48.260;8.928;2022-09-09T10:51:29;70598.56;;;-145.69;79.04
1726;BME280;41776;48.260;8.928;2022-09-09T10:54:10;70608.53;;;-145.69;70.93
1726;BME280;41776;48.260;8.928;2022-09-09T10:56:45;70636.38;;;-145.69;73.55
1726;BME280;41776;48.260;8.928;2022-09-09T10:59:18;70648.31;;;-145.69;80.42
1726;BME280;41776;48.260;8.928;2022-09-09T11:01:51;70614.47;;;-145.69;79.51
1726;BME280;41776;48.260;8.928;2022-09-09T11:04:22;70578.69;;;-145.69;74.21
1726;BME280;41776;48.260;8.928;2022-09-09T11:06:54;70548.84;;;-145.69;73.54
1726;BME280;41776;48.260;8.928;2022-09-09T11:09:23;70554.81;;;-145.69;75.13
1726;BME280;41776;48.260;8.928;2022-09-09T11:11:54;70584.66;;;-145.69;72.44
1726;BME280;41776;48.260;8.928;2022-09-09T11:14:26;70620.44;;;-145.69;71.94
1726;BME280;41776;48.260;8.928;2022-09-09T11:16:57;70616.47;;;-145.69;73.12
1726;BME280;41776;48.260;8.928;2022-09-09T11:19:29;70610.50;;;-145.69;78.63
1726;BME280;41776;48.260;8.928;2022-09-09T11:22:01;70608.53;;;-145.69;69.74
1726;BME280;41776;48.260;8.928;2022-09-09T11:24:33;70606.53;;;-145.69;74.66
1726;BME280;41776;48.260;8.928;2022-09-09T11:27:05;70542.88;;;-145.69;71.99
1726;BME280;41776;48.260;8.928;2022-09-09T11:32:56;70455.34;;;-145.69;63.99
1726;BME280;41776;48.260;8.928;2022-09-09T11:35:33;70473.22;;;-145.69;66.89
1726;BME280;41776;48.260;8.928;2022-09-09T11:38:19;70505.06;;;-145.69;60.47
1726;BME280;41776;48.260;8.928;2022-09-09T11:40:54;70473.22;;;-145.69;60.92
1726;BME280;41776;48.260;8.928;2022-09-09T11:43:25;70395.66;;;-145.69;63.01
1726;BME280;41776;48.260;8.928;2022-09-09T11:45:54;70361.84;;;-145.69;60.44
1726;BME280;41776;48.260;8.928;2022-09-09T11:48:26;70381.72;;;-145.69;56.10
1726;BME280;41776;48.260;8.928;2022-09-09T11:50:58;70447.38;;;-145.69;53.41
1726;BME280;41776;48.260;8.928;2022-09-09T11:53:26;70449.38;;;-145.69;54.28
1726;BME280;41776;48.260;8.928;2022-09-09T11:56:08;70415.53;;;-145.69;50.01
1726;BME280;41776;48.260;8.928;2022-09-09T11:58:41;70457.31;;;-145.69;52.47
1726;BME280;41776;48.260;8.928;2022-09-09T12:01:30;70473.22;;;-145.69;53.83
1726;BME280;41776;48.260;8.928;2022-09-09T12:04:09;70509.03;;;-145.69;51.63
1726;BME280;41776;48.260;8.928;2022-09-09T12:06:42;70507.06;;;-145.69;52.08
1726;BME280;41776;48.260;8.928;2022-09-09T12:09:18;70479.19;;;-145.69;52.87
1726;BME280;41776;48.260;8.928;2022-09-09T12:11:46;70467.28;;;-145.69;53.14
1726;BME280;41776;48.260;8.928;2022-09-09T12:14:20;70395.66;;;-145.69;55.04
1726;BME280;41776;48.260;8.928;2022-09-09T12:16:48;70425.50;;;-145.69;51.98
1726;BME280;41776;48.260;8.928;2022-09-09T12:19:22;70407.59;;;-145.69;54.88
1726;BME280;41776;48.260;8.928;2022-09-09T12:21:57;70473.22;;;-145.69;56.08
1726;BME280;41776;48.260;8.928;2022-09-09T12:24:33;70602.56;;;-145.69;71.48
1726;BME280;41776;48.260;8.928;2022-09-09T12:27:07;70624.44;;;-145.69;75.18
1726;BME280;41776;48.260;8.928;2022-09-09T12:29:44;70576.69;;;-145.69;77.40
1726;BME280;41776;48.260;8.928;2022-09-09T12:32:15;70536.91;;;-145.69;74.26
1726;BME280;41776;48.260;8.928;2022-09-09T12:34:47;70461.31;;;-145.69;70.60
1726;BME280;41776;48.260;8.928;2022-09-09T12:37:21;70457.31;;;-145.69;63.36
1726;BME280;41776;48.260;8.928;2022-09-09T12:39:55;70439.41;;;-145.69;59.26
1726;BME280;41776;48.260;8.928;2022-09-09T12:42:22;70459.31;;;-145.69;60.85
1726;BME280;41776;48.260;8.928;2022-09-09T12:44:57;70473.22;;;-145.69;61.46
1726;BME280;41776;48.260;8.928;2022-09-09T12:47:30;70475.22;;;-145.69;58.56
1726;BME280;41776;48.260;8.928;2022-09-09T12:50:02;70471.25;;;-145.69;61.19
1726;BME280;41776;48.260;8.928;2022-09-09T12:52:31;70467.28;;;-145.69;61.73
1726;BME280;41776;48.260;8.928;2022-09-09T12:55:02;70419.53;;;-145.69;61.07
1726;BME280;41776;48.260;8.928;2022-09-09T12:57:33;70391.66;;;-145.69;56.07
1726;BME280;41776;48.260;8.928;2022-09-09T13:00:07;70471.25;;;-145.69;59.83
1726;BME280;41776;48.260;8.928;2022-09-09T13:02:45;70542.88;;;-145.69;59.53
1726;BME280;41776;48.260;8.928;2022-09-09T13:05:15;70507.06;;;-145.69;59.72
1726;BME280;41776;48.260;8.928;2022-09-09T13:07:42;70507.06;;;-145.69;63.86